sensor_id;sensor_type;location;lat;lon;timestamp;noise_LAeq;noise_LA_min;noise_LA_max;noise_LA01;noise_LA95
18377;Laerm;9315;52.624;13.544;2023-03-20T00:02:23;38.57;32.35;43.34;;
18377;Laerm;9315;52.624;13.544;2023-03-20T00:04:50;38.34;32.12;47.24;;
18377;Laerm;9315;52.624;13.544;2023-03-20T00:07:17;35.54;29.81;44.05;;
18377;Laerm;9315;52.624;13.544;2023-03-20T00:09:44;39.61;31.70;52.80;;
18377;Laerm;9315;52.624;13.544;2023-03-20T00:12:23;62.01;33.10;80.74;;
18377;Laerm;9315;52.624;13.544;2023-03-20T00:14:51;37.62;33.24;44.48;;
18377;Laerm;9315;52.624;13.544;2023-03-20T00:17:19;40.46;33.58;47.72;;
18377;Laerm;9315;52.624;13.544;2023-03-20T00:19:49;57.62;38.55;71.53;;
18377;Laerm;9315;52.624;13.544;2023-03-20T00:22:17;39.23;31.24;46.14;;
18377;Laerm;9315;52.624;13.544;2023-03-20T00:24:44;39.56;32.44;45.18;;
18377;Laerm;9315;52.624;13.544;2023-03-20T00:27:16;47.24;36.50;55.47;;
18377;Laerm;9315;52.624;13.544;2023-03-20T00:29:43;41.41;36.60;48.30;;
18377;Laerm;9315;52.624;13.544;2023-03-20T00:32:12;51.32;33.54;66.57;;
18377;Laerm;9315;52.624;13.544;2023-03-20T00:34:40;38.94;32.14;46.70;;
18377;Laerm;9315;52.624;13.544;2023-03-20T00:37:09;55.78;37.06;74.68;;
18377;Laerm;9315;52.624;13.544;2023-03-20T00:39:37;44.84;37.78;53.56;;
18377;Laerm;9315;52.624;13.544;2023-03-20T00:42:06;42.40;35.31;50.79;;
18377;Laerm;9315;52.624;13.544;2023-03-20T00:44:54;58.46;35.87;76.72;;
18377;Laerm;9315;52.624;13.544;2023-03-20T00:47:22;47.92;34.62;61.38;;
18377;Laerm;9315;52.624;13.544;2023-03-20T00:49:52;51.26;34.29;67.94;;
18377;Laerm;9315;52.624;13.544;2023-03-20T00:52:21;42.82;32.15;55.22;;
18377;Laerm;9315;52.624;13.544;2023-03-20T00:54:48;42.74;35.61;48.40;;
18377;Laerm;9315;52.624;13.544;2023-03-20T00:57:34;49.87;34.17;65.76;;
18377;Laerm;9315;52.624;13.544;2023-03-20T01:00:19;53.55;34.98;70.31;;
18377;Laerm;9315;52.624;13.544;2023-03-20T01:02:47;54.74;35.76;72.04;;
18377;Laerm;9315;52.624;13.544;2023-03-20T01:05:14;52.31;36.51;70.88;;
18377;Laerm;9315;52.624;13.544;2023-03-20T01:07:42;42.37;35.18;50.22;;
18377;Laerm;9315;52.624;13.544;2023-03-20T01:10:11;60.15;34.85;75.59;;
18377;Laerm;9315;52.624;13.544;2023-03-20T01:12:41;57.52;39.38;74.05;;
18377;Laerm;9315;52.624;13.544;2023-03-20T01:15:32;61.46;38.80;81.35;;
18377;Laerm;9315;52.624;13.544;2023-03-20T01:18:00;40.14;35.12;46.37;;
18377;Laerm;9315;52.624;13.544;2023-03-20T01:20:31;40.69;35.66;47.16;;
18377;Laerm;9315;52.624;13.544;2023-03-20T01:22:58;42.30;35.61;52.23;;
18377;Laerm;9315;52.624;13.544;2023-03-20T01:25:25;54.28;37.18;69.14;;
18377;Laerm;9315;52.624;13.544;2023-03-20T01:27:53;56.24;34.34;73.17;;
18377;Laerm;9315;52.624;13.544;2023-03-20T01:30:28;40.27;33.72;48.35;;
18377;Laerm;9315;52.624;13.544;2023-03-20T01:32:57;39.42;33.90;47.71;;
18377;Laerm;9315;52.624;13.544;2023-03-20T01:35:27;58.09;36.21;74.23;;
18377;Laerm;9315;52.624;13.544;2023-03-20T01:37:55;62.28;35.81;77.48;;
18377;Laerm;9315;52.624;13.544;2023-03-20T01:40:28;43.85;38.42;52.09;;
18377;Laerm;9315;52.624;13.544;2023-03-20T01:42:57;40.27;33.26;48.38;;
18377;Laerm;9315;52.624;13.544;2023-03-20T01:45:35;38.76;33.02;47.02;;
18377;Laerm;9315;52.624;13.544;2023-03-20T01:48:15;38.96;32.58;45.16;;
18377;Laerm;9315;52.624;13.544;2023-03-20T01:50:43;39.69;33.71;48.61;;
18377;Laerm;9315;52.624;13.544;2023-03-20T01:53:22;58.38;36.55;78.50;;
18377;Laerm;9315;52.624;13.544;2023-03-20T01:55:55;40.35;33.69;49.26;;
18377;Laerm;9315;52.624;13.544;2023-03-20T01:58:37;54.99;36.57;72.01;;
18377;Laerm;9315;52.624;13.544;2023-03-20T02:01:09;55.14;34.31;73.13;;
18377;Laerm;9315;52.624;13.544;2023-03-20T02:03:47;55.46;37.80;72.98;;
18377;Laerm;9315;52.624;13.544;2023-03-20T02:06:16;54.97;38.27;70.77;;
18377;Laerm;9315;52.624;13.544;2023-03-20T02:08:49;62.14;38.40;77.96;;
18377;Laerm;9315;52.624;13.544;2023-03-20T02:11:20;58.40;38.06;73.86;;
18377;Laerm;9315;52.624;13.544;2023-03-20T02:13:53;57.02;38.88;73.72;;
18377;Laerm;9315;52.624;13.544;2023-03-20T02:16:21;41.09;36.20;49.74;;
18377;Laerm;9315;52.624;13.544;2023-03-20T02:18:51;56.21;36.37;73.72;;
18377;Laerm;9315;52.624;13.544;2023-03-20T02:31:51;53.85;35.50;68.31;;
18377;Laerm;9315;52.624;13.544;2023-03-20T02:51:59;59.69;37.36;76.22;;
18377;Laerm;9315;52.624;13.544;2023-03-20T03:00:31;60.54;37.31;78.19;;
18377;Laerm;9315;52.624;13.544;2023-03-20T03:03:30;56.06;38.13;74.19;;
18377;Laerm;9315;52.624;13.544;2023-03-20T03:06:31;57.33;38.17;76.43;;
18377;Laerm;9315;52.624;13.544;2023-03-20T03:11:51;64.93;41.02;80.83;;
18377;Laerm;9315;52.624;13.544;2023-03-20T03:14:41;55.40;39.29;70.40;;
18377;Laerm;9315;52.624;13.544;2023-03-20T03:17:12;62.76;36.79;74.08;;
18377;Laerm;9315;52.624;13.544;2023-03-20T03:19:47;59.00;39.36;73.91;;
18377;Laerm;9315;52.624;13.544;2023-03-20T03:22:16;60.58;39.90;73.07;;
18377;Laerm;9315;52.624;13.544;2023-03-20T03:24:48;57.55;39.66;73.47;;
18377;Laerm;9315;52.624;13.544;2023-03-20T03:27:37;59.87;41.01;73.61;;
18377;Laerm;9315;52.624;13.544;2023-03-20T03:30:27;62.98;39.86;75.99;;
18377;Laerm;9315;52.624;13.544;2023-03-20T03:33:24;62.08;42.87;75.42;;
18377;Laerm;9315;52.624;13.544;2023-03-20T03:45:13;60.60;42.38;73.45;;
18377;Laerm;9315;52.624;13.544;2023-03-20T03:48:12;65.71;45.16;80.98;;
18377;Laerm;9315;52.624;13.544;2023-03-20T03:50:50;63.64;43.46;77.01;;
18377;Laerm;9315;52.624;13.544;2023-03-20T03:53:31;64.69;46.15;80.45;;
18377;Laerm;9315;52.624;13.544;2023-03-20T03:56:09;62.87;43.95;75.17;;
18377;Laerm;9315;52.624;13.544;2023-03-20T03:58:50;64.68;43.31;75.86;;
18377;Laerm;9315;52.624;13.544;2023-03-20T04:01:19;62.22;44.93;76.49;;
18377;Laerm;9315;52.624;13.544;2023-03-20T04:03:54;64.73;46.31;74.33;;
18377;Laerm;9315;52.624;13.544;2023-03-20T04:06:25;64.74;47.07;77.98;;
18377;Laerm;9315;52.624;13.544;2023-03-20T04:08:53;66.26;45.95;77.52;;
18377;Laerm;9315;52.624;13.544;2023-03-20T04:11:25;67.42;45.42;82.35;;
18377;Laerm;9315;52.624;13.544;2023-03-20T04:13:55;65.70;47.78;78.64;;
18377;Laerm;9315;52.624;13.544;2023-03-20T04:16:24;67.34;50.48;76.52;;
18377;Laerm;9315;52.624;13.544;2023-03-20T04:18:52;65.51;48.53;74.35;;
18377;Laerm;9315;52.624;13.544;2023-03-20T04:21:19;65.70;47.69;76.36;;
18377;Laerm;9315;52.624;13.544;2023-03-20T04:23:46;67.67;47.99;78.25;;
18377;Laerm;9315;52.624;13.544;2023-03-20T04:26:13;66.05;48.57;75.80;;
18377;Laerm;9315;52.624;13.544;2023-03-20T04:28:40;64.68;45.91;76.02;;
18377;Laerm;9315;52.624;13.544;2023-03-20T04:31:08;67.04;51.90;78.93;;
18377;Laerm;9315;52.624;13.544;2023-03-20T04:33:35;66.69;50.74;78.07;;
18377;Laerm;9315;52.624;13.544;2023-03-20T04:36:02;66.69;47.75;77.36;;
18377;Laerm;9315;52.624;13.544;2023-03-20T04:38:29;66.20;47.66;75.19;;
18377;Laerm;9315;52.624;13.544;2023-03-20T04:41:00;68.54;46.65;81.66;;
18377;Laerm;9315;52.624;13.544;2023-03-20T04:43:27;70.10;50.09;83.70;;
18377;Laerm;9315;52.624;13.544;2023-03-20T04:45:55;66.90;49.29;76.72;;
18377;Laerm;9315;52.624;13.544;2023-03-20T04:48:22;67.23;49.53;77.66;;
18377;Laerm;9315;52.624;13.544;2023-03-20T04:50:49;66.13;48.27;76.91;;
18377;Laerm;9315;52.624;13.544;2023-03-20T04:53:17;65.85;48.72;75.61;;
18377;Laerm;9315;52.624;13.544;2023-03-20T04:55:44;68.89;48.71;83.73;;
18377;Laerm;9315;52.624;13.544;2023-03-20T04:58:12;65.83;48.72;76.87;;
18377;Laerm;9315;52.624;13.544;2023-03-20T05:00:39;68.11;51.88;79.26;;
18377;Laerm;9315;52.624;13.544;2023-03-20T05:03:06;68.85;52.50;78.91;;
18377;Laerm;9315;52.624;13.544;2023-03-20T05:05:33;71.23;51.01;84.84;;
18377;Laerm;9315;52.624;13.544;2023-03-20T05:08:05;69.85;53.45;80.74;;
18377;Laerm;9315;52.624;13.544;2023-03-20T05:10:32;67.56;50.30;76.61;;
18377;Laerm;9315;52.624;13.544;2023-03-20T05:12:59;70.29;52.07;83.55;;
18377;Laerm;9315;52.624;13.544;2023-03-20T05:15:27;69.36;52.09;78.10;;
18377;Laerm;9315;52.624;13.544;2023-03-20T05:17:54;70.64;53.59;80.86;;
18377;Laerm;9315;52.624;13.544;2023-03-20T05:20:21;70.62;52.57;80.07;;
18377;Laerm;9315;52.624;13.544;2023-03-20T05:22:49;68.17;49.92;81.78;;
18377;Laerm;9315;52.624;13.544;2023-03-20T05:25:21;70.75;52.43;77.84;;
18377;Laerm;9315;52.624;13.544;2023-03-20T05:27:48;70.27;52.25;78.26;;
18377;Laerm;9315;52.624;13.544;2023-03-20T05:30:15;69.55;52.72;77.00;;
18377;Laerm;9315;52.624;13.544;2023-03-20T05:32:42;70.13;52.17;83.07;;
18377;Laerm;9315;52.624;13.544;2023-03-20T05:35:11;67.19;52.54;77.10;;
18377;Laerm;9315;52.624;13.544;2023-03-20T05:37:38;70.43;52.50;77.45;;
18377;Laerm;9315;52.624;13.544;2023-03-20T05:40:08;70.09;51.91;79.52;;
18377;Laerm;9315;52.624;13.544;2023-03-20T05:42:37;69.27;50.00;77.47;;
18377;Laerm;9315;52.624;13.544;2023-03-20T05:45:08;70.43;52.41;78.84;;
18377;Laerm;9315;52.624;13.544;2023-03-20T05:47:35;69.50;50.09;77.22;;
18377;Laerm;9315;52.624;13.544;2023-03-20T05:50:03;71.84;52.48;81.95;;
18377;Laerm;9315;52.624;13.544;2023-03-20T05:52:31;69.74;50.99;81.50;;
18377;Laerm;9315;52.624;13.544;2023-03-20T05:54:58;68.83;50.38;78.80;;
18377;Laerm;9315;52.624;13.544;2023-03-20T05:57:31;70.15;51.38;78.55;;
18377;Laerm;9315;52.624;13.544;2023-03-20T06:00:01;70.42;54.24;78.53;;
18377;Laerm;9315;52.624;13.544;2023-03-20T06:02:28;69.47;52.67;78.91;;
18377;Laerm;9315;52.624;13.544;2023-03-20T06:04:56;69.13;53.97;80.11;;
18377;Laerm;9315;52.624;13.544;2023-03-20T06:07:23;71.11;52.61;87.36;;
18377;Laerm;9315;52.624;13.544;2023-03-20T06:09:50;71.92;53.93;81.35;;
18377;Laerm;9315;52.624;13.544;2023-03-20T06:12:17;69.45;51.63;76.75;;
18377;Laerm;9315;52.624;13.544;2023-03-20T06:14:44;70.15;52.60;81.22;;
18377;Laerm;9315;52.624;13.544;2023-03-20T06:17:12;70.16;51.27;78.04;;
18377;Laerm;9315;52.624;13.544;2023-03-20T06:19:39;71.68;53.62;78.61;;
18377;Laerm;9315;52.624;13.544;2023-03-20T06:22:07;70.59;50.13;77.49;;
18377;Laerm;9315;52.624;13.544;2023-03-20T06:24:34;69.78;52.67;79.69;;
18377;Laerm;9315;52.624;13.544;2023-03-20T06:27:01;71.08;53.63;78.83;;
18377;Laerm;9315;52.624;13.544;2023-03-20T06:29:28;69.24;51.92;79.47;;
18377;Laerm;9315;52.624;13.544;2023-03-20T06:31:56;71.19;51.19;85.04;;
18377;Laerm;9315;52.624;13.544;2023-03-20T06:34:23;69.14;52.05;82.40;;
18377;Laerm;9315;52.624;13.544;2023-03-20T06:36:50;67.64;51.87;78.01;;
18377;Laerm;9315;52.624;13.544;2023-03-20T06:39:17;70.65;55.04;78.73;;
18377;Laerm;9315;52.624;13.544;2023-03-20T06:41:57;69.77;53.31;79.50;;
18377;Laerm;9315;52.624;13.544;2023-03-20T06:44:24;69.89;54.10;78.69;;
18377;Laerm;9315;52.624;13.544;2023-03-20T06:46:53;70.22;55.70;78.40;;
18377;Laerm;9315;52.624;13.544;2023-03-20T06:49:23;70.10;52.64;81.66;;
18377;Laerm;9315;52.624;13.544;2023-03-20T06:51:50;69.31;45.14;76.95;;
18377;Laerm;9315;52.624;13.544;2023-03-20T06:54:17;68.51;45.20;75.63;;
18377;Laerm;9315;52.624;13.544;2023-03-20T06:56:44;73.41;51.17;91.26;;
18377;Laerm;9315;52.624;13.544;2023-03-20T06:59:11;70.04;47.89;84.33;;
18377;Laerm;9315;52.624;13.544;2023-03-20T07:01:38;70.95;57.93;79.44;;
18377;Laerm;9315;52.624;13.544;2023-03-20T07:04:07;69.92;53.95;78.10;;
18377;Laerm;9315;52.624;13.544;2023-03-20T07:06:34;69.68;49.28;78.28;;
18377;Laerm;9315;52.624;13.544;2023-03-20T07:09:03;69.82;50.13;79.52;;
18377;Laerm;9315;52.624;13.544;2023-03-20T07:11:32;70.65;51.50;81.08;;
18377;Laerm;9315;52.624;13.544;2023-03-20T07:14:00;69.38;48.86;77.20;;
18377;Laerm;9315;52.624;13.544;2023-03-20T07:16:27;69.82;49.43;78.15;;
18377;Laerm;9315;52.624;13.544;2023-03-20T07:18:54;70.12;53.08;77.59;;
18377;Laerm;9315;52.624;13.544;2023-03-20T07:21:22;70.63;54.70;82.39;;
18377;Laerm;9315;52.624;13.544;2023-03-20T07:23:49;70.26;55.67;79.76;;
18377;Laerm;9315;52.624;13.544;2023-03-20T07:26:16;69.33;56.18;80.97;;
18377;Laerm;9315;52.624;13.544;2023-03-20T07:28:46;71.27;57.94;79.69;;
18377;Laerm;9315;52.624;13.544;2023-03-20T07:31:24;68.91;50.92;79.52;;
18377;Laerm;9315;52.624;13.544;2023-03-20T07:33:52;70.28;53.42;79.78;;
18377;Laerm;9315;52.624;13.544;2023-03-20T07:36:19;70.59;52.66;79.85;;
18377;Laerm;9315;52.624;13.544;2023-03-20T07:38:47;69.86;53.08;77.64;;
18377;Laerm;9315;52.624;13.544;2023-03-20T07:41:14;71.48;49.20;85.87;;
18377;Laerm;9315;52.624;13.544;2023-03-20T07:43:41;69.67;46.97;82.31;;
18377;Laerm;9315;52.624;13.544;2023-03-20T07:46:10;68.32;45.71;77.52;;
18377;Laerm;9315;52.624;13.544;2023-03-20T07:48:37;69.95;51.43;82.35;;
18377;Laerm;9315;52.624;13.544;2023-03-20T07:51:05;69.64;47.37;80.23;;
18377;Laerm;9315;52.624;13.544;2023-03-20T07:53:32;69.39;49.33;83.69;;
18377;Laerm;9315;52.624;13.544;2023-03-20T07:56:00;69.87;46.81;81.17;;
18377;Laerm;9315;52.624;13.544;2023-03-20T07:58:27;68.97;45.68;83.89;;
18377;Laerm;9315;52.624;13.544;2023-03-20T08:00:57;69.30;49.22;79.83;;
18377;Laerm;9315;52.624;13.544;2023-03-20T08:03:24;66.47;44.63;77.24;;
18377;Laerm;9315;52.624;13.544;2023-03-20T08:05:52;70.63;45.88;81.34;;
18377;Laerm;9315;52.624;13.544;2023-03-20T08:08:20;69.02;44.71;76.59;;
18377;Laerm;9315;52.624;13.544;2023-03-20T08:10:47;69.09;45.48;79.07;;
18377;Laerm;9315;52.624;13.544;2023-03-20T08:13:14;69.07;46.54;79.26;;
18377;Laerm;9315;52.624;13.544;2023-03-20T08:15:42;71.47;50.97;80.84;;
18377;Laerm;9315;52.624;13.544;2023-03-20T08:18:10;69.78;51.19;77.85;;
18377;Laerm;9315;52.624;13.544;2023-03-20T08:20:38;69.53;50.17;81.09;;
18377;Laerm;9315;52.624;13.544;2023-03-20T08:23:05;68.76;50.52;76.53;;
18377;Laerm;9315;52.624;13.544;2023-03-20T08:25:32;69.17;46.62;79.89;;
18377;Laerm;9315;52.624;13.544;2023-03-20T08:28:00;69.31;47.04;80.75;;
18377;Laerm;9315;52.624;13.544;2023-03-20T08:30:27;69.47;48.71;80.96;;
18377;Laerm;9315;52.624;13.544;2023-03-20T08:32:57;68.29;46.24;81.80;;
18377;Laerm;9315;52.624;13.544;2023-03-20T08:35:25;67.75;47.44;77.22;;
18377;Laerm;9315;52.624;13.544;2023-03-20T08:38:00;69.93;50.63;80.60;;
18377;Laerm;9315;52.624;13.544;2023-03-20T08:40:30;68.43;52.31;78.54;;
18377;Laerm;9315;52.624;13.544;2023-03-20T08:42:58;69.59;49.25;79.47;;
18377;Laerm;9315;52.624;13.544;2023-03-20T08:45:25;70.25;48.72;84.88;;
18377;Laerm;9315;52.624;13.544;2023-03-20T08:47:52;69.92;50.44;80.24;;
18377;Laerm;9315;52.624;13.544;2023-03-20T08:50:21;69.55;47.48;78.51;;
18377;Laerm;9315;52.624;13.544;2023-03-20T08:52:48;67.48;51.90;77.44;;
18377;Laerm;9315;52.624;13.544;2023-03-20T08:55:16;69.43;46.77;78.80;;
18377;Laerm;9315;52.624;13.544;2023-03-20T08:57:43;69.08;50.51;78.13;;
18377;Laerm;9315;52.624;13.544;2023-03-20T09:00:14;69.70;48.75;79.05;;
18377;Laerm;9315;52.624;13.544;2023-03-20T09:02:42;68.74;49.35;82.60;;
18377;Laerm;9315;52.624;13.544;2023-03-20T09:05:10;69.82;44.91;83.30;;
18377;Laerm;9315;52.624;13.544;2023-03-20T09:07:38;70.10;50.48;80.35;;
18377;Laerm;9315;52.624;13.544;2023-03-20T09:10:06;69.66;47.77;80.26;;
18377;Laerm;9315;52.624;13.544;2023-03-20T09:12:33;67.21;46.40;78.49;;
18377;Laerm;9315;52.624;13.544;2023-03-20T09:15:08;67.59;48.23;80.29;;
18377;Laerm;9315;52.624;13.544;2023-03-20T09:17:35;68.93;49.95;77.24;;
18377;Laerm;9315;52.624;13.544;2023-03-20T09:20:03;70.68;50.65;80.48;;
18377;Laerm;9315;52.624;13.544;2023-03-20T09:22:32;70.09;49.38;83.72;;
18377;Laerm;9315;52.624;13.544;2023-03-20T09:24:59;69.06;46.80;79.72;;
18377;Laerm;9315;52.624;13.544;2023-03-20T09:27:26;69.55;46.67;79.81;;
18377;Laerm;9315;52.624;13.544;2023-03-20T09:29:54;68.32;47.67;77.76;;
18377;Laerm;9315;52.624;13.544;2023-03-20T09:32:21;69.19;48.79;82.00;;
18377;Laerm;9315;52.624;13.544;2023-03-20T09:34:48;67.52;46.92;77.16;;
18377;Laerm;9315;52.624;13.544;2023-03-20T09:37:15;68.16;46.86;79.10;;
18377;Laerm;9315;52.624;13.544;2023-03-20T09:39:43;69.84;51.15;78.15;;
18377;Laerm;9315;52.624;13.544;2023-03-20T09:46:02;71.37;54.11;81.93;;
18377;Laerm;9315;52.624;13.544;2023-03-20T09:51:58;70.19;49.53;81.11;;
18377;Laerm;9315;52.624;13.544;2023-03-20T09:54:41;69.30;49.05;79.73;;
18377;Laerm;9315;52.624;13.544;2023-03-20T09:57:28;70.29;53.75;86.13;;
18377;Laerm;9315;52.624;13.544;2023-03-20T10:00:06;70.88;51.47;84.61;;
18377;Laerm;9315;52.624;13.544;2023-03-20T10:03:08;68.50;48.10;77.39;;
18377;Laerm;9315;52.624;13.544;2023-03-20T10:05:53;70.46;53.53;80.29;;
18377;Laerm;9315;52.624;13.544;2023-03-20T10:08:37;68.48;47.53;79.99;;
18377;Laerm;9315;52.624;13.544;2023-03-20T10:18:25;68.86;49.32;81.54;;
18377;Laerm;9315;52.624;13.544;2023-03-20T10:21:42;70.34;50.34;83.88;;
18377;Laerm;9315;52.624;13.544;2023-03-20T10:24:33;68.22;47.28;79.91;;
18377;Laerm;9315;52.624;13.544;2023-03-20T10:27:24;70.28;52.33;83.68;;
18377;Laerm;9315;52.624;13.544;2023-03-20T10:30:11;67.05;48.61;77.69;;
18377;Laerm;9315;52.624;13.544;2023-03-20T10:33:28;70.34;51.49;83.75;;
18377;Laerm;9315;52.624;13.544;2023-03-20T10:42:26;68.90;48.45;81.45;;
18377;Laerm;9315;52.624;13.544;2023-03-20T10:45:01;67.57;47.57;79.01;;
18377;Laerm;9315;52.624;13.544;2023-03-20T10:47:35;70.01;50.55;79.36;;
18377;Laerm;9315;52.624;13.544;2023-03-20T10:50:15;69.82;51.17;78.51;;
18377;Laerm;9315;52.624;13.544;2023-03-20T10:52:50;70.39;48.18;80.63;;
18377;Laerm;9315;52.624;13.544;2023-03-20T10:55:24;67.56;47.22;79.18;;
18377;Laerm;9315;52.624;13.544;2023-03-20T10:58:20;69.86;47.10;80.50;;
18377;Laerm;9315;52.624;13.544;2023-03-20T11:00:49;69.69;48.65;83.14;;
18377;Laerm;9315;52.624;13.544;2023-03-20T11:03:28;69.37;50.47;81.67;;
18377;Laerm;9315;52.624;13.544;2023-03-20T11:08:48;67.83;46.48;77.49;;
18377;Laerm;9315;52.624;13.544;2023-03-20T11:11:29;67.36;45.99;77.23;;
18377;Laerm;9315;52.624;13.544;2023-03-20T11:14:19;68.49;48.78;77.45;;
18377;Laerm;9315;52.624;13.544;2023-03-20T11:16:53;68.97;50.46;80.62;;
18377;Laerm;9315;52.624;13.544;2023-03-20T11:19:23;69.10;47.87;80.10;;
18377;Laerm;9315;52.624;13.544;2023-03-20T11:21:55;68.95;52.02;78.29;;
18377;Laerm;9315;52.624;13.544;2023-03-20T11:24:44;68.78;49.41;79.52;;
18377;Laerm;9315;52.624;13.544;2023-03-20T11:27:26;69.49;50.27;79.66;;
18377;Laerm;9315;52.624;13.544;2023-03-20T11:29:55;69.60;50.89;78.62;;
18377;Laerm;9315;52.624;13.544;2023-03-20T11:32:39;68.55;48.35;78.90;;
18377;Laerm;9315;52.624;13.544;2023-03-20T11:35:30;68.03;48.81;75.89;;
18377;Laerm;9315;52.624;13.544;2023-03-20T11:38:19;69.68;46.60;87.86;;
18377;Laerm;9315;52.624;13.544;2023-03-20T11:40:50;69.59;48.91;79.26;;
18377;Laerm;9315;52.624;13.544;2023-03-20T11:43:26;70.86;47.17;84.48;;
18377;Laerm;9315;52.624;13.544;2023-03-20T11:45:58;69.14;47.59;79.75;;
18377;Laerm;9315;52.624;13.544;2023-03-20T11:48:44;70.39;47.27;87.51;;
18377;Laerm;9315;52.624;13.544;2023-03-20T11:51:19;69.80;50.36;82.24;;
18377;Laerm;9315;52.624;13.544;2023-03-20T11:56:26;69.48;49.40;79.60;;
18377;Laerm;9315;52.624;13.544;2023-03-20T11:59:14;70.96;48.01;83.15;;
18377;Laerm;9315;52.624;13.544;2023-03-20T12:01:49;67.22;49.05;79.99;;
18377;Laerm;9315;52.624;13.544;2023-03-20T12:04:19;67.89;48.55;77.19;;
18377;Laerm;9315;52.624;13.544;2023-03-20T12:09:43;71.46;51.96;81.98;;
18377;Laerm;9315;52.624;13.544;2023-03-20T12:15:37;68.95;48.47;80.20;;
18377;Laerm;9315;52.624;13.544;2023-03-20T12:18:46;69.81;48.00;82.36;;
18377;Laerm;9315;52.624;13.544;2023-03-20T12:21:43;68.25;48.39;78.32;;
18377;Laerm;9315;52.624;13.544;2023-03-20T12:24:45;70.31;51.14;80.51;;
18377;Laerm;9315;52.624;13.544;2023-03-20T12:27:43;69.85;49.39;81.02;;
18377;Laerm;9315;52.624;13.544;2023-03-20T12:36:42;68.23;48.49;79.41;;
18377;Laerm;9315;52.624;13.544;2023-03-20T12:39:32;68.77;48.24;78.34;;
18377;Laerm;9315;52.624;13.544;2023-03-20T12:42:38;70.85;47.38;85.08;;
18377;Laerm;9315;52.624;13.544;2023-03-20T12:45:20;68.06;49.18;79.64;;
18377;Laerm;9315;52.624;13.544;2023-03-20T12:51:48;68.67;48.41;79.69;;
18377;Laerm;9315;52.624;13.544;2023-03-20T12:57:38;69.43;49.35;78.66;;
18377;Laerm;9315;52.624;13.544;2023-03-20T13:04:06;69.36;48.14;80.31;;
18377;Laerm;9315;52.624;13.544;2023-03-20T13:21:41;68.67;46.53;78.04;;
18377;Laerm;9315;52.624;13.544;2023-03-20T13:24:53;67.10;47.24;76.74;;
18377;Laerm;9315;52.624;13.544;2023-03-20T13:28:15;69.21;48.18;77.23;;
18377;Laerm;9315;52.624;13.544;2023-03-20T13:35:20;69.12;51.55;78.19;;
18377;Laerm;9315;52.624;13.544;2023-03-20T13:38:00;69.43;52.26;77.89;;
18377;Laerm;9315;52.624;13.544;2023-03-20T13:40:43;71.26;54.79;85.52;;
18377;Laerm;9315;52.624;13.544;2023-03-20T13:43:48;70.36;51.92;83.87;;
18377;Laerm;9315;52.624;13.544;2023-03-20T13:49:34;69.40;51.10;81.11;;
18377;Laerm;9315;52.624;13.544;2023-03-20T13:52:34;68.87;49.00;79.42;;
18377;Laerm;9315;52.624;13.544;2023-03-20T13:55:40;69.73;49.95;77.14;;
18377;Laerm;9315;52.624;13.544;2023-03-20T13:58:51;69.96;51.12;80.60;;
18377;Laerm;9315;52.624;13.544;2023-03-20T14:01:59;69.92;49.35;85.93;;
18377;Laerm;9315;52.624;13.544;2023-03-20T14:04:34;68.31;48.74;83.11;;
18377;Laerm;9315;52.624;13.544;2023-03-20T14:07:01;67.80;50.13;78.35;;
18377;Laerm;9315;52.624;13.544;2023-03-20T14:09:35;70.11;50.30;77.89;;
18377;Laerm;9315;52.624;13.544;2023-03-20T14:12:10;71.03;52.37;80.13;;
18377;Laerm;9315;52.624;13.544;2023-03-20T14:14:58;68.77;50.96;77.34;;
18377;Laerm;9315;52.624;13.544;2023-03-20T14:17:29;70.20;49.07;77.74;;
18377;Laerm;9315;52.624;13.544;2023-03-20T14:20:18;69.50;50.48;79.28;;
18377;Laerm;9315;52.624;13.544;2023-03-20T14:22:50;68.18;51.15;81.26;;
18377;Laerm;9315;52.624;13.544;2023-03-20T14:25:20;69.84;49.75;79.19;;
18377;Laerm;9315;52.624;13.544;2023-03-20T14:27:59;70.00;49.79;78.62;;
18377;Laerm;9315;52.624;13.544;2023-03-20T14:36:21;69.03;46.03;81.07;;
18377;Laerm;9315;52.624;13.544;2023-03-20T14:48:43;68.90;46.56;79.48;;
18377;Laerm;9315;52.624;13.544;2023-03-20T14:53:32;70.20;49.67;77.81;;
18377;Laerm;9315;52.624;13.544;2023-03-20T14:56:12;69.88;48.95;79.23;;
18377;Laerm;9315;52.624;13.544;2023-03-20T14:58:52;69.65;49.12;78.94;;
18377;Laerm;9315;52.624;13.544;2023-03-20T15:03:56;68.12;45.59;78.23;;
18377;Laerm;9315;52.624;13.544;2023-03-20T15:06:27;68.90;49.14;75.86;;
18377;Laerm;9315;52.624;13.544;2023-03-20T15:09:08;69.52;49.59;83.49;;
18377;Laerm;9315;52.624;13.544;2023-03-20T15:11:37;70.61;55.37;77.07;;
18377;Laerm;9315;52.624;13.544;2023-03-20T15:14:06;69.16;47.80;76.41;;
18377;Laerm;9315;52.624;13.544;2023-03-20T15:16:36;70.00;48.61;80.42;;
18377;Laerm;9315;52.624;13.544;2023-03-20T15:19:18;68.67;48.36;77.96;;
18377;Laerm;9315;52.624;13.544;2023-03-20T15:21:48;70.12;48.83;83.10;;
18377;Laerm;9315;52.624;13.544;2023-03-20T15:24:29;69.64;47.10;82.15;;
18377;Laerm;9315;52.624;13.544;2023-03-20T15:27:01;69.90;49.06;78.55;;
18377;Laerm;9315;52.624;13.544;2023-03-20T15:29:29;69.62;48.62;77.11;;
18377;Laerm;9315;52.624;13.544;2023-03-20T15:31:59;68.90;53.15;76.41;;
18377;Laerm;9315;52.624;13.544;2023-03-20T15:34:44;68.27;47.29;80.39;;
18377;Laerm;9315;52.624;13.544;2023-03-20T15:37:20;69.08;50.11;79.36;;
18377;Laerm;9315;52.624;13.544;2023-03-20T15:39:52;70.37;53.24;77.26;;
18377;Laerm;9315;52.624;13.544;2023-03-20T15:42:24;70.54;51.56;83.65;;
18377;Laerm;9315;52.624;13.544;2023-03-20T15:44:54;69.07;49.16;80.75;;
18377;Laerm;9315;52.624;13.544;2023-03-20T15:47:24;69.88;51.58;78.83;;
18377;Laerm;9315;52.624;13.544;2023-03-20T15:49:58;69.51;46.87;79.52;;
18377;Laerm;9315;52.624;13.544;2023-03-20T15:52:40;69.13;51.59;79.67;;
18377;Laerm;9315;52.624;13.544;2023-03-20T15:55:18;69.90;50.68;78.69;;
18377;Laerm;9315;52.624;13.544;2023-03-20T15:57:46;70.28;48.70;91.39;;
18377;Laerm;9315;52.624;13.544;2023-03-20T16:00:33;67.47;47.23;75.98;;
18377;Laerm;9315;52.624;13.544;2023-03-20T16:03:07;68.11;46.65;80.48;;
18377;Laerm;9315;52.624;13.544;2023-03-20T16:05:35;69.21;45.97;82.47;;
18377;Laerm;9315;52.624;13.544;2023-03-20T16:08:25;68.85;51.09;78.11;;
18377;Laerm;9315;52.624;13.544;2023-03-20T16:11:13;68.96;48.88;76.93;;
18377;Laerm;9315;52.624;13.544;2023-03-20T16:13:46;68.67;45.57;77.57;;
18377;Laerm;9315;52.624;13.544;2023-03-20T16:16:22;68.68;46.43;81.54;;
18377;Laerm;9315;52.624;13.544;2023-03-20T16:18:50;69.22;47.48;81.32;;
18377;Laerm;9315;52.624;13.544;2023-03-20T16:21:25;68.79;49.45;76.33;;
18377;Laerm;9315;52.624;13.544;2023-03-20T16:23:57;69.25;49.00;80.11;;
18377;Laerm;9315;52.624;13.544;2023-03-20T16:26:26;67.51;47.81;76.86;;
18377;Laerm;9315;52.624;13.544;2023-03-20T16:28:59;68.26;50.61;77.86;;
18377;Laerm;9315;52.624;13.544;2023-03-20T16:31:35;68.78;49.19;77.86;;
18377;Laerm;9315;52.624;13.544;2023-03-20T16:34:18;67.63;48.95;77.29;;
18377;Laerm;9315;52.624;13.544;2023-03-20T16:36:56;68.74;51.45;79.18;;
18377;Laerm;9315;52.624;13.544;2023-03-20T16:39:28;68.20;48.09;76.06;;
18377;Laerm;9315;52.624;13.544;2023-03-20T16:44:35;68.92;47.89;78.64;;